sensor_id;sensor_type;location;lat;lon;timestamp;temperature;humidity
573;DHT22;271;51.114;13.780;2023-02-11T00:01:21;1.80;1.00
573;DHT22;271;51.114;13.780;2023-02-11T00:04:10;1.80;1.00
573;DHT22;271;51.114;13.780;2023-02-11T00:06:59;1.80;1.00
573;DHT22;271;51.114;13.780;2023-02-11T00:09:47;1.80;1.00
573;DHT22;271;51.114;13.780;2023-02-11T00:12:36;1.80;1.00
573;DHT22;271;51.114;13.780;2023-02-11T00:15:23;1.80;1.00
573;DHT22;271;51.114;13.780;2023-02-11T00:18:11;1.90;1.00
573;DHT22;271;51.114;13.780;2023-02-11T00:20:59;1.80;1.00
573;DHT22;271;51.114;13.780;2023-02-11T00:23:48;1.90;1.00
573;DHT22;271;51.114;13.780;2023-02-11T00:26:36;2.00;1.00
573;DHT22;271;51.114;13.780;2023-02-11T00:29:23;2.00;1.00
573;DHT22;271;51.114;13.780;2023-02-11T00:32:11;2.00;1.00
573;DHT22;271;51.114;13.780;2023-02-11T00:34:59;2.00;1.00
573;DHT22;271;51.114;13.780;2023-02-11T00:37:46;2.00;1.00
573;DHT22;271;51.114;13.780;2023-02-11T00:40:35;2.00;1.00
573;DHT22;271;51.114;13.780;2023-02-11T00:43:23;2.10;1.00
573;DHT22;271;51.114;13.780;2023-02-11T00:46:11;2.10;1.00
573;DHT22;271;51.114;13.780;2023-02-11T00:48:59;2.20;1.00
573;DHT22;271;51.114;13.780;2023-02-11T00:51:47;2.20;1.00
573;DHT22;271;51.114;13.780;2023-02-11T00:54:34;2.20;1.00
573;DHT22;271;51.114;13.780;2023-02-11T00:57:23;2.20;1.00
573;DHT22;271;51.114;13.780;2023-02-11T01:00:13;2.30;1.00
573;DHT22;271;51.114;13.780;2023-02-11T01:03:01;2.30;1.00
573;DHT22;271;51.114;13.780;2023-02-11T01:05:48;2.30;1.00
573;DHT22;271;51.114;13.780;2023-02-11T01:08:37;2.30;1.00
573;DHT22;271;51.114;13.780;2023-02-11T01:11:25;2.30;1.00
573;DHT22;271;51.114;13.780;2023-02-11T01:14:14;2.50;1.00
573;DHT22;271;51.114;13.780;2023-02-11T01:17:04;2.40;1.00
573;DHT22;271;51.114;13.780;2023-02-11T01:19:51;2.40;1.00
573;DHT22;271;51.114;13.780;2023-02-11T01:22:39;2.40;1.00
573;DHT22;271;51.114;13.780;2023-02-11T01:25:27;2.40;1.00
573;DHT22;271;51.114;13.780;2023-02-11T01:28:16;2.50;1.00
573;DHT22;271;51.114;13.780;2023-02-11T01:31:06;2.40;1.00
573;DHT22;271;51.114;13.780;2023-02-11T01:33:53;2.50;1.00
573;DHT22;271;51.114;13.780;2023-02-11T01:36:41;2.50;1.00
573;DHT22;271;51.114;13.780;2023-02-11T01:39:31;2.50;1.00
573;DHT22;271;51.114;13.780;2023-02-11T01:42:21;2.50;1.00
573;DHT22;271;51.114;13.780;2023-02-11T01:45:41;2.60;1.00
573;DHT22;271;51.114;13.780;2023-02-11T01:48:42;2.60;1.00
573;DHT22;271;51.114;13.780;2023-02-11T01:51:33;2.70;1.00
573;DHT22;271;51.114;13.780;2023-02-11T01:54:26;2.80;1.00
573;DHT22;271;51.114;13.780;2023-02-11T01:57:34;2.80;1.00
573;DHT22;271;51.114;13.780;2023-02-11T02:00:25;2.70;1.00
573;DHT22;271;51.114;13.780;2023-02-11T02:03:16;2.90;1.00
573;DHT22;271;51.114;13.780;2023-02-11T02:06:13;2.90;1.00
573;DHT22;271;51.114;13.780;2023-02-11T02:09:05;2.80;1.00
573;DHT22;271;51.114;13.780;2023-02-11T02:11:54;2.90;1.00
573;DHT22;271;51.114;13.780;2023-02-11T02:14:42;2.90;1.00
573;DHT22;271;51.114;13.780;2023-02-11T02:17:36;3.00;1.00
573;DHT22;271;51.114;13.780;2023-02-11T02:20:54;3.00;1.00
573;DHT22;271;51.114;13.780;2023-02-11T02:24:27;3.10;1.00
573;DHT22;271;51.114;13.780;2023-02-11T02:27:33;3.20;1.00
573;DHT22;271;51.114;13.780;2023-02-11T02:33:44;3.20;1.00
573;DHT22;271;51.114;13.780;2023-02-11T02:36:39;3.20;1.00
573;DHT22;271;51.114;13.780;2023-02-11T02:39:32;3.30;1.00
573;DHT22;271;51.114;13.780;2023-02-11T02:42:20;3.30;1.00
573;DHT22;271;51.114;13.780;2023-02-11T02:45:09;3.40;1.00
573;DHT22;271;51.114;13.780;2023-02-11T02:47:58;3.40;1.00
573;DHT22;271;51.114;13.780;2023-02-11T02:50:48;3.50;1.00
573;DHT22;271;51.114;13.780;2023-02-11T02:53:43;3.60;1.00
573;DHT22;271;51.114;13.780;2023-02-11T02:56:39;3.60;1.00
573;DHT22;271;51.114;13.780;2023-02-11T02:59:42;3.60;1.00
573;DHT22;271;51.114;13.780;2023-02-11T03:02:40;3.60;1.00
573;DHT22;271;51.114;13.780;2023-02-11T03:05:40;3.60;1.00
573;DHT22;271;51.114;13.780;2023-02-11T03:08:39;3.70;1.00
573;DHT22;271;51.114;13.780;2023-02-11T03:11:30;3.70;1.00
573;DHT22;271;51.114;13.780;2023-02-11T03:14:20;3.70;1.00
573;DHT22;271;51.114;13.780;2023-02-11T03:17:09;3.80;1.00
573;DHT22;271;51.114;13.780;2023-02-11T03:19:58;3.80;1.00
573;DHT22;271;51.114;13.780;2023-02-11T03:22:48;3.80;1.00
573;DHT22;271;51.114;13.780;2023-02-11T03:25:44;3.70;1.00
573;DHT22;271;51.114;13.780;2023-02-11T03:28:35;3.70;1.00
573;DHT22;271;51.114;13.780;2023-02-11T03:31:28;3.80;1.00
573;DHT22;271;51.114;13.780;2023-02-11T03:34:21;3.80;1.00
573;DHT22;271;51.114;13.780;2023-02-11T03:37:13;3.80;1.00
573;DHT22;271;51.114;13.780;2023-02-11T03:40:05;3.80;1.00
573;DHT22;271;51.114;13.780;2023-02-11T03:43:02;3.80;1.00
573;DHT22;271;51.114;13.780;2023-02-11T03:45:51;3.80;1.00
573;DHT22;271;51.114;13.780;2023-02-11T03:48:42;3.90;1.00
573;DHT22;271;51.114;13.780;2023-02-11T03:51:32;3.90;1.00
573;DHT22;271;51.114;13.780;2023-02-11T03:54:23;3.90;1.00
573;DHT22;271;51.114;13.780;2023-02-11T03:57:13;3.80;1.00
573;DHT22;271;51.114;13.780;2023-02-11T04:00:03;3.80;1.00
573;DHT22;271;51.114;13.780;2023-02-11T04:02:51;3.80;1.00
573;DHT22;271;51.114;13.780;2023-02-11T04:05:39;3.80;1.00
573;DHT22;271;51.114;13.780;2023-02-11T04:08:27;3.90;1.00
573;DHT22;271;51.114;13.780;2023-02-11T04:11:15;3.80;1.00
573;DHT22;271;51.114;13.780;2023-02-11T04:14:03;3.80;1.00
573;DHT22;271;51.114;13.780;2023-02-11T04:16:52;3.80;1.00
573;DHT22;271;51.114;13.780;2023-02-11T04:19:40;3.90;1.00
573;DHT22;271;51.114;13.780;2023-02-11T04:22:29;3.80;1.00
573;DHT22;271;51.114;13.780;2023-02-11T04:25:16;3.90;1.00
573;DHT22;271;51.114;13.780;2023-02-11T04:28:04;3.80;1.00
573;DHT22;271;51.114;13.780;2023-02-11T04:30:52;3.80;1.00
573;DHT22;271;51.114;13.780;2023-02-11T04:33:41;3.80;1.00
573;DHT22;271;51.114;13.780;2023-02-11T04:36:29;3.90;1.00
573;DHT22;271;51.114;13.780;2023-02-11T04:39:16;3.90;1.00
573;DHT22;271;51.114;13.780;2023-02-11T04:42:04;3.90;1.00
573;DHT22;271;51.114;13.780;2023-02-11T04:44:52;3.90;1.00
573;DHT22;271;51.114;13.780;2023-02-11T04:47:40;4.00;1.00
573;DHT22;271;51.114;13.780;2023-02-11T04:50:29;3.90;1.00
573;DHT22;271;51.114;13.780;2023-02-11T04:53:17;3.90;1.00
573;DHT22;271;51.114;13.780;2023-02-11T04:56:05;4.00;1.00
573;DHT22;271;51.114;13.780;2023-02-11T04:58:53;3.90;1.00
573;DHT22;271;51.114;13.780;2023-02-11T05:01:40;3.90;1.00
573;DHT22;271;51.114;13.780;2023-02-11T05:04:28;4.10;1.00
573;DHT22;271;51.114;13.780;2023-02-11T05:07:17;4.00;1.00
573;DHT22;271;51.114;13.780;2023-02-11T05:10:05;4.00;1.00
573;DHT22;271;51.114;13.780;2023-02-11T05:12:52;3.90;1.00
573;DHT22;271;51.114;13.780;2023-02-11T05:15:40;3.90;1.00
573;DHT22;271;51.114;13.780;2023-02-11T05:18:28;3.90;1.00
573;DHT22;271;51.114;13.780;2023-02-11T05:21:18;4.00;1.00
573;DHT22;271;51.114;13.780;2023-02-11T05:24:07;4.00;1.00
573;DHT22;271;51.114;13.780;2023-02-11T05:26:55;4.00;1.00
573;DHT22;271;51.114;13.780;2023-02-11T05:29:43;3.90;1.00
573;DHT22;271;51.114;13.780;2023-02-11T05:32:30;4.00;1.00
573;DHT22;271;51.114;13.780;2023-02-11T05:35:18;3.90;1.00
573;DHT22;271;51.114;13.780;2023-02-11T05:38:06;3.90;1.00
573;DHT22;271;51.114;13.780;2023-02-11T05:40:55;3.90;1.00
573;DHT22;271;51.114;13.780;2023-02-11T05:43:43;3.80;1.00
573;DHT22;271;51.114;13.780;2023-02-11T05:46:30;3.80;1.00
573;DHT22;271;51.114;13.780;2023-02-11T05:49:18;3.80;1.00
573;DHT22;271;51.114;13.780;2023-02-11T05:52:06;3.80;1.00
573;DHT22;271;51.114;13.780;2023-02-11T05:54:53;3.80;1.00
573;DHT22;271;51.114;13.780;2023-02-11T05:57:42;3.80;1.00
573;DHT22;271;51.114;13.780;2023-02-11T06:00:30;3.90;1.00
573;DHT22;271;51.114;13.780;2023-02-11T06:03:18;3.90;1.00
573;DHT22;271;51.114;13.780;2023-02-11T06:06:08;4.00;1.00
573;DHT22;271;51.114;13.780;2023-02-11T06:08:56;3.80;1.00
573;DHT22;271;51.114;13.780;2023-02-11T06:11:44;3.90;1.00
573;DHT22;271;51.114;13.780;2023-02-11T06:14:33;3.80;1.00
573;DHT22;271;51.114;13.780;2023-02-11T06:17:21;3.80;1.00
573;DHT22;271;51.114;13.780;2023-02-11T06:20:10;3.80;1.00
573;DHT22;271;51.114;13.780;2023-02-11T06:22:59;3.80;1.00
573;DHT22;271;51.114;13.780;2023-02-11T06:25:47;3.80;1.00
573;DHT22;271;51.114;13.780;2023-02-11T06:28:35;3.60;1.00
573;DHT22;271;51.114;13.780;2023-02-11T06:31:24;3.60;1.00
573;DHT22;271;51.114;13.780;2023-02-11T06:34:12;3.60;1.00
573;DHT22;271;51.114;13.780;2023-02-11T06:36:59;3.60;1.00
573;DHT22;271;51.114;13.780;2023-02-11T06:39:47;3.60;1.00
573;DHT22;271;51.114;13.780;2023-02-11T06:42:35;3.60;1.00
573;DHT22;271;51.114;13.780;2023-02-11T06:45:24;3.70;1.00
573;DHT22;271;51.114;13.780;2023-02-11T06:48:13;3.70;1.00
573;DHT22;271;51.114;13.780;2023-02-11T06:51:01;3.80;1.00
573;DHT22;271;51.114;13.780;2023-02-11T06:53:50;3.70;1.00
573;DHT22;271;51.114;13.780;2023-02-11T06:56:39;3.70;1.00
573;DHT22;271;51.114;13.780;2023-02-11T06:59:28;3.80;1.00
573;DHT22;271;51.114;13.780;2023-02-11T07:02:15;3.90;1.00
573;DHT22;271;51.114;13.780;2023-02-11T07:05:06;3.80;1.00
573;DHT22;271;51.114;13.780;2023-02-11T07:07:54;3.80;1.00
573;DHT22;271;51.114;13.780;2023-02-11T07:10:42;3.90;1.00
573;DHT22;271;51.114;13.780;2023-02-11T07:13:29;3.90;1.00
573;DHT22;271;51.114;13.780;2023-02-11T07:16:18;3.90;1.00
573;DHT22;271;51.114;13.780;2023-02-11T07:19:06;3.90;1.00
573;DHT22;271;51.114;13.780;2023-02-11T07:21:55;3.90;1.00
573;DHT22;271;51.114;13.780;2023-02-11T07:24:43;4.10;1.00
573;DHT22;271;51.114;13.780;2023-02-11T07:27:31;4.00;1.00
573;DHT22;271;51.114;13.780;2023-02-11T07:30:19;4.00;1.00
573;DHT22;271;51.114;13.780;2023-02-11T07:33:06;4.00;1.00
573;DHT22;271;51.114;13.780;2023-02-11T07:35:54;4.10;1.00
573;DHT22;271;51.114;13.780;2023-02-11T07:38:43;4.10;1.00
573;DHT22;271;51.114;13.780;2023-02-11T07:41:31;4.10;1.00
573;DHT22;271;51.114;13.780;2023-02-11T07:44:20;4.00;1.00
573;DHT22;271;51.114;13.780;2023-02-11T07:47:08;4.00;1.00
573;DHT22;271;51.114;13.780;2023-02-11T07:49:55;4.00;1.00
573;DHT22;271;51.114;13.780;2023-02-11T07:52:43;4.00;1.00
573;DHT22;271;51.114;13.780;2023-02-11T07:55:33;3.90;1.00
573;DHT22;271;51.114;13.780;2023-02-11T07:58:21;4.00;1.00
573;DHT22;271;51.114;13.780;2023-02-11T08:01:11;4.00;1.00
573;DHT22;271;51.114;13.780;2023-02-11T08:04:00;4.00;1.00
573;DHT22;271;51.114;13.780;2023-02-11T08:06:49;4.00;1.00
573;DHT22;271;51.114;13.780;2023-02-11T08:09:38;4.00;1.00
573;DHT22;271;51.114;13.780;2023-02-11T08:12:27;4.00;1.00
573;DHT22;271;51.114;13.780;2023-02-11T08:15:15;4.00;1.00
573;DHT22;271;51.114;13.780;2023-02-11T08:18:03;4.00;1.00
573;DHT22;271;51.114;13.780;2023-02-11T08:20:52;4.00;1.00
573;DHT22;271;51.114;13.780;2023-02-11T08:23:40;4.00;1.00
573;DHT22;271;51.114;13.780;2023-02-11T08:26:30;4.10;1.00
573;DHT22;271;51.114;13.780;2023-02-11T08:29:21;4.10;1.00
573;DHT22;271;51.114;13.780;2023-02-11T08:32:09;4.10;1.00
573;DHT22;271;51.114;13.780;2023-02-11T08:34:56;4.10;1.00
573;DHT22;271;51.114;13.780;2023-02-11T08:37:44;4.20;1.00
573;DHT22;271;51.114;13.780;2023-02-11T08:40:32;4.20;1.00
573;DHT22;271;51.114;13.780;2023-02-11T08:43:19;4.30;1.00
573;DHT22;271;51.114;13.780;2023-02-11T08:46:11;4.40;1.00
573;DHT22;271;51.114;13.780;2023-02-11T08:48:59;4.30;1.00
573;DHT22;271;51.114;13.780;2023-02-11T08:51:47;4.40;1.00
573;DHT22;271;51.114;13.780;2023-02-11T08:54:36;4.50;1.00
573;DHT22;271;51.114;13.780;2023-02-11T08:57:23;4.50;1.00
573;DHT22;271;51.114;13.780;2023-02-11T09:00:12;4.60;1.00
573;DHT22;271;51.114;13.780;2023-02-11T09:03:01;4.60;1.00
573;DHT22;271;51.114;13.780;2023-02-11T09:05:50;4.60;1.00
573;DHT22;271;51.114;13.780;2023-02-11T09:08:39;4.70;1.00
573;DHT22;271;51.114;13.780;2023-02-11T09:11:29;4.70;1.00
573;DHT22;271;51.114;13.780;2023-02-11T09:14:20;4.80;1.00
573;DHT22;271;51.114;13.780;2023-02-11T09:17:08;4.80;1.00
573;DHT22;271;51.114;13.780;2023-02-11T09:19:57;4.80;1.00
573;DHT22;271;51.114;13.780;2023-02-11T09:22:45;4.90;1.00
573;DHT22;271;51.114;13.780;2023-02-11T09:25:33;4.90;1.00
573;DHT22;271;51.114;13.780;2023-02-11T09:28:21;4.90;1.00
573;DHT22;271;51.114;13.780;2023-02-11T09:31:11;5.00;1.00
573;DHT22;271;51.114;13.780;2023-02-11T09:34:01;5.00;1.00
573;DHT22;271;51.114;13.780;2023-02-11T09:36:51;4.90;1.00
573;DHT22;271;51.114;13.780;2023-02-11T09:39:38;4.90;1.00
573;DHT22;271;51.114;13.780;2023-02-11T09:42:43;5.00;1.00
573;DHT22;271;51.114;13.780;2023-02-11T09:45:31;5.00;1.00
573;DHT22;271;51.114;13.780;2023-02-11T09:48:20;4.90;1.00
573;DHT22;271;51.114;13.780;2023-02-11T09:51:16;5.00;1.00
573;DHT22;271;51.114;13.780;2023-02-11T09:54:13;5.00;1.00
573;DHT22;271;51.114;13.780;2023-02-11T09:57:02;5.10;1.00
573;DHT22;271;51.114;13.780;2023-02-11T09:59:51;5.00;1.00
573;DHT22;271;51.114;13.780;2023-02-11T10:02:51;5.00;1.00
573;DHT22;271;51.114;13.780;2023-02-11T10:05:55;5.00;1.00
573;DHT22;271;51.114;13.780;2023-02-11T10:08:52;5.00;1.00
573;DHT22;271;51.114;13.780;2023-02-11T10:11:54;5.10;1.00
573;DHT22;271;51.114;13.780;2023-02-11T10:15:00;5.10;1.00
573;DHT22;271;51.114;13.780;2023-02-11T10:18:01;5.10;1.00
573;DHT22;271;51.114;13.780;2023-02-11T10:21:02;5.10;1.00
573;DHT22;271;51.114;13.780;2023-02-11T10:23:53;5.00;1.00
573;DHT22;271;51.114;13.780;2023-02-11T10:26:43;5.10;1.00
573;DHT22;271;51.114;13.780;2023-02-11T10:29:39;5.10;1.00
573;DHT22;271;51.114;13.780;2023-02-11T10:32:33;5.10;1.00
573;DHT22;271;51.114;13.780;2023-02-11T10:35:23;5.30;1.00
573;DHT22;271;51.114;13.780;2023-02-11T10:38:12;5.40;1.00
573;DHT22;271;51.114;13.780;2023-02-11T10:41:00;5.40;1.00
573;DHT22;271;51.114;13.780;2023-02-11T10:43:48;5.50;1.00
573;DHT22;271;51.114;13.780;2023-02-11T10:46:38;5.50;1.00
573;DHT22;271;51.114;13.780;2023-02-11T10:49:37;5.60;1.00
573;DHT22;271;51.114;13.780;2023-02-11T10:52:26;5.60;1.00
573;DHT22;271;51.114;13.780;2023-02-11T10:55:17;5.70;1.00
573;DHT22;271;51.114;13.780;2023-02-11T10:58:06;5.70;1.00
573;DHT22;271;51.114;13.780;2023-02-11T11:00:56;5.60;1.00
573;DHT22;271;51.114;13.780;2023-02-11T11:03:48;5.60;1.00
573;DHT22;271;51.114;13.780;2023-02-11T11:06:36;5.60;1.00
573;DHT22;271;51.114;13.780;2023-02-11T11:09:27;5.70;1.00
573;DHT22;271;51.114;13.780;2023-02-11T11:12:32;5.70;1.00
573;DHT22;271;51.114;13.780;2023-02-11T11:15:22;5.70;1.00
573;DHT22;271;51.114;13.780;2023-02-11T11:18:14;5.70;1.00
573;DHT22;271;51.114;13.780;2023-02-11T11:21:05;5.70;1.00
573;DHT22;271;51.114;13.780;2023-02-11T11:23:55;5.70;1.00
573;DHT22;271;51.114;13.780;2023-02-11T11:26:45;5.70;1.00
573;DHT22;271;51.114;13.780;2023-02-11T11:29:35;5.70;1.00
573;DHT22;271;51.114;13.780;2023-02-11T11:32:26;5.80;1.00
573;DHT22;271;51.114;13.780;2023-02-11T11:35:24;5.60;1.00
573;DHT22;271;51.114;13.780;2023-02-11T11:38:14;5.80;1.00
573;DHT22;271;51.114;13.780;2023-02-11T11:41:17;5.60;1.00
573;DHT22;271;51.114;13.780;2023-02-11T11:44:26;5.60;1.00
573;DHT22;271;51.114;13.780;2023-02-11T11:47:26;5.70;1.00
573;DHT22;271;51.114;13.780;2023-02-11T11:50:25;5.70;1.00
573;DHT22;271;51.114;13.780;2023-02-11T11:53:17;5.80;1.00
573;DHT22;271;51.114;13.780;2023-02-11T11:56:11;5.80;1.00
573;DHT22;271;51.114;13.780;2023-02-11T11:59:04;5.80;1.00
573;DHT22;271;51.114;13.780;2023-02-11T12:02:34;5.80;1.00
573;DHT22;271;51.114;13.780;2023-02-11T12:05:35;5.80;1.00
573;DHT22;271;51.114;13.780;2023-02-11T12:08:36;5.80;1.00
573;DHT22;271;51.114;13.780;2023-02-11T12:11:34;5.70;1.00
573;DHT22;271;51.114;13.780;2023-02-11T12:14:33;5.70;1.00
573;DHT22;271;51.114;13.780;2023-02-11T12:17:37;5.60;1.00
573;DHT22;271;51.114;13.780;2023-02-11T12:20:37;5.70;1.00
573;DHT22;271;51.114;13.780;2023-02-11T12:23:39;5.70;1.00
573;DHT22;271;51.114;13.780;2023-02-11T12:26:31;5.70;1.00
573;DHT22;271;51.114;13.780;2023-02-11T12:29:32;5.70;1.00
573;DHT22;271;51.114;13.780;2023-02-11T12:32:31;5.60;1.00
573;DHT22;271;51.114;13.780;2023-02-11T12:35:40;5.60;1.00
573;DHT22;271;51.114;13.780;2023-02-11T12:38:52;5.70;1.00
573;DHT22;271;51.114;13.780;2023-02-11T12:41:56;5.70;1.00
573;DHT22;271;51.114;13.780;2023-02-11T12:45:16;5.70;1.00
573;DHT22;271;51.114;13.780;2023-02-11T12:48:16;5.80;1.00
573;DHT22;271;51.114;13.780;2023-02-11T12:51:15;5.80;1.00
573;DHT22;271;51.114;13.780;2023-02-11T12:54:16;5.80;1.00
573;DHT22;271;51.114;13.780;2023-02-11T12:57:10;5.70;1.00
573;DHT22;271;51.114;13.780;2023-02-11T13:00:03;5.80;1.00
573;DHT22;271;51.114;13.780;2023-02-11T13:02:58;5.70;1.00
573;DHT22;271;51.114;13.780;2023-02-11T13:05:49;5.80;1.00
573;DHT22;271;51.114;13.780;2023-02-11T13:08:42;5.80;1.00
573;DHT22;271;51.114;13.780;2023-02-11T13:11:37;5.80;1.00
573;DHT22;271;51.114;13.780;2023-02-11T13:14:29;5.80;1.00
573;DHT22;271;51.114;13.780;2023-02-11T13:17:26;5.80;1.00
573;DHT22;271;51.114;13.780;2023-02-11T13:20:24;5.80;1.00
573;DHT22;271;51.114;13.780;2023-02-11T13:23:18;5.90;1.00
573;DHT22;271;51.114;13.780;2023-02-11T13:26:15;5.90;1.00
573;DHT22;271;51.114;13.780;2023-02-11T13:29:15;5.80;1.00
573;DHT22;271;51.114;13.780;2023-02-11T13:32:08;5.80;1.00
573;DHT22;271;51.114;13.780;2023-02-11T13:34:57;5.80;1.00
573;DHT22;271;51.114;13.780;2023-02-11T13:37:46;5.80;1.00
573;DHT22;271;51.114;13.780;2023-02-11T13:40:35;5.80;1.00
573;DHT22;271;51.114;13.780;2023-02-11T13:43:25;5.80;1.00
573;DHT22;271;51.114;13.780;2023-02-11T13:46:15;5.80;1.00
573;DHT22;271;51.114;13.780;2023-02-11T13:49:14;5.80;1.00
573;DHT22;271;51.114;13.780;2023-02-11T13:52:14;5.80;1.00
573;DHT22;271;51.114;13.780;2023-02-11T13:55:08;5.80;1.00
573;DHT22;271;51.114;13.780;2023-02-11T13:58:25;5.80;1.00
573;DHT22;271;51.114;13.780;2023-02-11T14:01:39;5.90;1.00
573;DHT22;271;51.114;13.780;2023-02-11T14:04:27;5.80;1.00
573;DHT22;271;51.114;13.780;2023-02-11T14:07:33;5.80;1.00
573;DHT22;271;51.114;13.780;2023-02-11T14:10:49;5.80;1.00
573;DHT22;271;51.114;13.780;2023-02-11T14:14:02;5.90;1.00
573;DHT22;271;51.114;13.780;2023-02-11T14:17:30;6.00;1.00
573;DHT22;271;51.114;13.780;2023-02-11T14:20:45;6.00;1.00
573;DHT22;271;51.114;13.780;2023-02-11T14:23:33;6.00;1.00
573;DHT22;271;51.114;13.780;2023-02-11T14:26:30;6.00;1.00
573;DHT22;271;51.114;13.780;2023-02-11T14:29:26;6.00;1.00
573;DHT22;271;51.114;13.780;2023-02-11T14:32:32;6.00;1.00
573;DHT22;271;51.114;13.780;2023-02-11T14:35:28;6.00;1.00
573;DHT22;271;51.114;13.780;2023-02-11T14:38:25;6.00;1.00
573;DHT22;271;51.114;13.780;2023-02-11T14:41:18;6.00;1.00
573;DHT22;271;51.114;13.780;2023-02-11T14:44:14;6.00;1.00
573;DHT22;271;51.114;13.780;2023-02-11T14:47:03;6.10;1.00
573;DHT22;271;51.114;13.780;2023-02-11T14:49:53;6.10;1.00
573;DHT22;271;51.114;13.780;2023-02-11T14:52:42;6.00;1.00
573;DHT22;271;51.114;13.780;2023-02-11T14:55:33;6.00;1.00
573;DHT22;271;51.114;13.780;2023-02-11T14:58:24;6.00;1.00
573;DHT22;271;51.114;13.780;2023-02-11T15:01:27;6.00;1.00
573;DHT22;271;51.114;13.780;2023-02-11T15:04:23;6.00;1.00
573;DHT22;271;51.114;13.780;2023-02-11T15:07:14;6.00;1.00
573;DHT22;271;51.114;13.780;2023-02-11T15:10:04;6.00;1.00
573;DHT22;271;51.114;13.780;2023-02-11T15:12:52;6.00;1.00
573;DHT22;271;51.114;13.780;2023-02-11T15:15:40;6.00;1.00
573;DHT22;271;51.114;13.780;2023-02-11T15:18:33;6.00;1.00
573;DHT22;271;51.114;13.780;2023-02-11T15:21:23;6.00;1.00
573;DHT22;271;51.114;13.780;2023-02-11T15:24:23;5.90;1.00
573;DHT22;271;51.114;13.780;2023-02-11T15:27:12;6.00;1.00
573;DHT22;271;51.114;13.780;2023-02-11T15:30:01;6.00;1.00
573;DHT22;271;51.114;13.780;2023-02-11T15:32:49;6.00;1.00
573;DHT22;271;51.114;13.780;2023-02-11T15:35:38;6.00;1.00
573;DHT22;271;51.114;13.780;2023-02-11T15:38:26;6.00;1.00
573;DHT22;271;51.114;13.780;2023-02-11T15:41:34;6.00;1.00
573;DHT22;271;51.114;13.780;2023-02-11T15:44:26;6.00;1.00
573;DHT22;271;51.114;13.780;2023-02-11T15:47:18;6.00;1.00
573;DHT22;271;51.114;13.780;2023-02-11T15:50:17;6.00;1.00
573;DHT22;271;51.114;13.780;2023-02-11T15:53:19;6.00;1.00
573;DHT22;271;51.114;13.780;2023-02-11T15:56:11;5.90;1.00
573;DHT22;271;51.114;13.780;2023-02-11T15:59:10;5.90;1.00
573;DHT22;271;51.114;13.780;2023-02-11T16:02:06;5.90;1.00
573;DHT22;271;51.114;13.780;2023-02-11T16:04:56;5.80;1.00
573;DHT22;271;51.114;13.780;2023-02-11T16:07:46;5.90;1.00
573;DHT22;271;51.114;13.780;2023-02-11T16:10:35;6.00;1.00
573;DHT22;271;51.114;13.780;2023-02-11T16:13:22;5.90;1.00
573;DHT22;271;51.114;13.780;2023-02-11T16:16:17;5.90;1.00
573;DHT22;271;51.114;13.780;2023-02-11T16:19:17;5.90;1.00
573;DHT22;271;51.114;13.780;2023-02-11T16:22:08;5.90;1.00
573;DHT22;271;51.114;13.780;2023-02-11T16:24:57;5.90;1.00
573;DHT22;271;51.114;13.780;2023-02-11T16:27:48;6.00;1.00
573;DHT22;271;51.114;13.780;2023-02-11T16:30:38;6.20;1.00
573;DHT22;271;51.114;13.780;2023-02-11T16:33:27;5.90;1.00
573;DHT22;271;51.114;13.780;2023-02-11T16:36:15;6.00;1.00
573;DHT22;271;51.114;13.780;2023-02-11T16:39:03;6.00;1.00
573;DHT22;271;51.114;13.780;2023-02-11T16:41:51;5.90;1.00
573;DHT22;271;51.114;13.780;2023-02-11T16:44:39;5.90;1.00
573;DHT22;271;51.114;13.780;2023-02-11T16:47:27;5.80;1.00
573;DHT22;271;51.114;13.780;2023-02-11T16:50:21;5.70;1.00
573;DHT22;271;51.114;13.780;2023-02-11T16:53:09;5.70;1.00
573;DHT22;271;51.114;13.780;2023-02-11T16:55:57;5.60;1.00
573;DHT22;271;51.114;13.780;2023-02-11T16:58:45;5.60;1.00
573;DHT22;271;51.114;13.780;2023-02-11T17:01:32;5.60;1.00
573;DHT22;271;51.114;13.780;2023-02-11T17:04:24;5.40;1.00
573;DHT22;271;51.114;13.780;2023-02-11T17:07:13;5.40;1.00
573;DHT22;271;51.114;13.780;2023-02-11T17:10:01;5.40;1.00
573;DHT22;271;51.114;13.780;2023-02-11T17:12:49;5.40;1.00
573;DHT22;271;51.114;13.780;2023-02-11T17:15:38;5.30;1.00
573;DHT22;271;51.114;13.780;2023-02-11T17:18:26;5.30;1.00
573;DHT22;271;51.114;13.780;2023-02-11T17:21:14;5.30;1.00
573;DHT22;271;51.114;13.780;2023-02-11T17:24:04;5.30;1.60
573;DHT22;271;51.114;13.780;2023-02-11T17:26:52;5.30;2.60
573;DHT22;271;51.114;13.780;2023-02-11T17:29:40;5.30;6.10
573;DHT22;271;51.114;13.780;2023-02-11T17:32:27;5.30;4.30
573;DHT22;271;51.114;13.780;2023-02-11T17:35:16;5.30;8.30
573;DHT22;271;51.114;13.780;2023-02-11T17:38:03;5.20;7.60
573;DHT22;271;51.114;13.780;2023-02-11T17:41:00;5.20;7.90
573;DHT22;271;51.114;13.780;2023-02-11T17:43:47;5.20;10.20
573;DHT22;271;51.114;13.780;2023-02-11T17:46:35;5.30;11.00
573;DHT22;271;51.114;13.780;2023-02-11T17:49:23;5.30;10.60
573;DHT22;271;51.114;13.780;2023-02-11T17:52:11;5.30;15.60
573;DHT22;271;51.114;13.780;2023-02-11T17:54:59;5.30;16.70
573;DHT22;271;51.114;13.780;2023-02-11T17:57:48;5.30;13.70
573;DHT22;271;51.114;13.780;2023-02-11T18:00:35;5.20;15.50
573;DHT22;271;51.114;13.780;2023-02-11T18:03:23;5.20;16.90
573;DHT22;271;51.114;13.780;2023-02-11T18:06:11;5.20;19.90
573;DHT22;271;51.114;13.780;2023-02-11T18:08:59;5.20;20.30
573;DHT22;271;51.114;13.780;2023-02-11T18:11:49;5.30;20.40
573;DHT22;271;51.114;13.780;2023-02-11T18:14:39;5.20;20.10
573;DHT22;271;51.114;13.780;2023-02-11T18:17:27;5.20;21.50
573;DHT22;271;51.114;13.780;2023-02-11T18:20:15;5.30;22.50
573;DHT22;271;51.114;13.780;2023-02-11T18:23:03;5.20;24.10
573;DHT22;271;51.114;13.780;2023-02-11T18:25:51;5.20;24.80
573;DHT22;271;51.114;13.780;2023-02-11T18:28:39;5.20;24.50
573;DHT22;271;51.114;13.780;2023-02-11T18:31:28;5.20;26.80
573;DHT22;271;51.114;13.780;2023-02-11T18:34:16;5.20;27.80
573;DHT22;271;51.114;13.780;2023-02-11T18:37:03;5.20;27.20
573;DHT22;271;51.114;13.780;2023-02-11T18:39:51;5.20;28.00
573;DHT22;271;51.114;13.780;2023-02-11T18:42:39;5.20;28.70
573;DHT22;271;51.114;13.780;2023-02-11T18:45:26;5.20;28.40
573;DHT22;271;51.114;13.780;2023-02-11T18:48:17;5.20;26.90
573;DHT22;271;51.114;13.780;2023-02-11T18:51:08;5.30;26.70
573;DHT22;271;51.114;13.780;2023-02-11T18:53:56;5.20;29.30
573;DHT22;271;51.114;13.780;2023-02-11T18:56:44;5.30;28.80
573;DHT22;271;51.114;13.780;2023-02-11T18:59:32;5.30;28.70
573;DHT22;271;51.114;13.780;2023-02-11T19:02:19;5.30;29.90
573;DHT22;271;51.114;13.780;2023-02-11T19:05:09;5.20;30.50
573;DHT22;271;51.114;13.780;2023-02-11T19:07:58;5.20;31.40
573;DHT22;271;51.114;13.780;2023-02-11T19:10:46;5.20;33.00
573;DHT22;271;51.114;13.780;2023-02-11T19:13:34;5.20;35.00
573;DHT22;271;51.114;13.780;2023-02-11T19:16:22;5.30;37.00
573;DHT22;271;51.114;13.780;2023-02-11T19:19:10;5.20;36.90
573;DHT22;271;51.114;13.780;2023-02-11T19:22:00;5.20;37.10
573;DHT22;271;51.114;13.780;2023-02-11T19:24:48;5.30;38.60
573;DHT22;271;51.114;13.780;2023-02-11T19:27:36;5.30;37.60
573;DHT22;271;51.114;13.780;2023-02-11T19:30:26;5.30;38.00
573;DHT22;271;51.114;13.780;2023-02-11T19:33:14;5.30;38.60
573;DHT22;271;51.114;13.780;2023-02-11T19:36:04;5.40;38.70
573;DHT22;271;51.114;13.780;2023-02-11T19:38:54;5.40;41.10